Available data for KLBE from the past 2 hours
LATROBE/WESTMORL, PA
Metar
KLBE 240053Z 23016G23KT 10SM FEW040 23/19 A2997

00:53 UTC

Wind: 230° 16kt

Visibility: 10 SM

Sky: FEW 4000 ft

Temp: 23 deg C / 73.4 deg F

Dewpoint: 19 deg C / 66.2 deg F

Pressure: 29.97 inHg

TAF
KLBE 232325Z 2400/2424 25010G20KT P6SM BKN050 FM240300 28010KT P6SM BKN060 FM241200 29008G17KT P6SM FEW250 FM242100 31007KT P6SM SCT120